الصفحة الرئيسية
METAR-TAF:

METAR-TAF

مطار :

Pago Pago, جزر الولايات المتحدة البعيدة الصغيرة

دائرة عرض: 14-20S, خط طول: 170-43W, ارتفاع: 3 متر

مراقبة الطقس الحالي

تاريخ ووقت الإصدار 44 دقيقة قبل الساعة 14:50UTC
ريح 10 عقدة من الشرق/الجنوب الشرقي
درجة الحرارة 28°درجة مئوية
الرطوبة 79%
ضغط 1013 hPa
الرؤية: 16.1 كم
غيوم متفرقة على ارتفاع 2100 قدم

METAR: NSTU 161450Z 12010KT 10SM SCT021 28/24 A2991 RMK 8/100 57012

زمن: 04:34 (15:34 UTC)

توقعات

تاريخ ووقت الإصدار 4ساعات و 14 دقيقة قبل الساعة 11:20UTC
التوقعات صالحة من16 الساعة 12 UTC إلى 17 الساعة 12 UTC
ريح 10 عقدة من الشرق
الرؤية: 10 كم
غيوم متفرقة على ارتفاع 1500 قدم
غيوم متفرقة على ارتفاع 4000 قدم
غيوم مفككة على ارتفاع 10000 قدم
زخات في الجوار,

TAF: NSTU 161120Z 1612/1712 10010KT P6SM VCSH SCT015 SCT040 BKN100

أرصاد الطقس والتوقعات من أكثر من 4000 مطار (تقارير الطقس للمطار METAR والتنبؤ بالطقس بالمطارTAF).

المحطات المتاحة هي النقط الصفراء والحمراء على الخريطة.

حرك المؤشر فوق النقطة لمعرفة اسم المحطة.

ثم انقر لمعرفة أرصاد وتوقعات الطقس.

لتغيير الخارطة: اضغط على الأزرار الخضراء مع رمز الصليب الأسود للتكبير. على الزر الأخضر مع شرطة للتصغير، أو على الأسهم الخضراء للخرائط المجاورة.


METAR-TAF: